Weather at Hartsfield Jackson Atlanta International Airport

Public forecast

Using degrees Fahrenheit for public forecast. Weather courtesy of forecast.io.

Current aviation weather report (METAR) for Hartsfield Jackson Atlanta International Airport

Retrieved 2021/07/28 12:52 UTC (1 hour ago):

KATL 281252Z 30008KT 10SM FEW008 SCT200 SCT250 24/22 A3006 RMK AO2 SLP169 T02440217

Aviation forecast (TAF) for Hartsfield Jackson Atlanta International Airport

Retrieved 2021/07/28 12:39 UTC (1 hour ago):

TAF KATL 281137Z 2812/2918 29004KT 6SM BR SCT004 BKN015 FM281400 31005KT P6SM SCT020 FM281700 02006KT P6SM SCT040 FM290000 VRB03KT P6SM FEW250 FM291400 32005KT P6SM FEW250